createdAt,value
2022-10-28T02:45:45.422Z,92.45
2022-10-28T02:46:45.627Z,92.55
2022-10-28T02:50:38.941Z,92.51
2022-10-28T02:51:40.330Z,93.12
2022-10-28T02:52:40.235Z,92.82
2022-10-28T02:53:40.209Z,92.41
2022-10-28T02:54:41.090Z,92.00
2022-10-28T02:55:40.065Z,92.36
2022-10-28T02:56:40.013Z,94.20
2022-10-28T02:57:40.064Z,93.99
2022-10-28T02:58:40.044Z,94.05
2022-10-28T02:59:39.920Z,93.74
2022-10-28T03:00:39.955Z,93.03
2022-10-28T03:01:40.262Z,92.93
2022-10-28T03:02:39.924Z,93.84
2022-10-28T03:03:39.964Z,94.56
2022-10-28T03:04:39.957Z,94.25
2022-10-28T03:05:39.878Z,94.05
2022-10-28T03:06:39.959Z,94.05
2022-10-28T03:07:39.857Z,94.05
2022-10-28T03:08:39.876Z,94.15
2022-10-28T03:09:39.893Z,93.95
2022-10-28T03:10:39.858Z,93.13
2022-10-28T03:11:39.839Z,93.95
2022-10-28T03:12:39.956Z,93.60
2022-10-28T03:13:39.798Z,92.83
2022-10-28T03:14:39.885Z,92.42
2022-10-28T03:15:39.822Z,92.42
2022-10-28T03:16:39.758Z,93.09
2022-10-28T03:17:39.848Z,93.09
2022-10-28T03:18:39.795Z,92.68
2022-10-28T03:19:39.787Z,92.18
2022-10-28T03:20:39.728Z,92.18
2022-10-28T03:21:39.745Z,92.38
2022-10-28T03:22:39.681Z,91.93
2022-10-28T03:25:12.979Z,92.33
2022-10-28T03:26:13.326Z,91.42
2022-10-28T03:27:13.396Z,91.52
2022-10-28T03:28:12.898Z,91.42
2022-10-28T03:29:13.042Z,91.63
2022-10-28T03:30:12.928Z,91.12
2022-10-28T03:31:13.144Z,90.61
2022-10-28T03:32:14.759Z,90.61
2022-10-28T03:33:14.571Z,90.31
2022-10-28T03:34:14.369Z,90.31
2022-10-28T03:35:13.961Z,90.00
2022-10-28T03:36:14.125Z,90.35
2022-10-28T03:37:14.142Z,90.20
2022-10-28T03:38:14.176Z,90.96
2022-10-28T03:39:14.397Z,91.26
2022-10-28T03:40:13.995Z,91.56
2022-10-28T03:41:14.388Z,90.75
2022-10-28T03:42:14.428Z,90.25
2022-10-28T03:43:14.042Z,90.96
2022-10-28T03:44:14.394Z,91.36
2022-10-28T03:45:14.119Z,91.56
2022-10-28T03:46:13.999Z,91.47
2022-10-28T03:47:14.014Z,91.26
2022-10-28T03:48:14.493Z,91.56
2022-10-28T03:49:14.053Z,91.87
2022-10-28T03:50:14.018Z,91.67
2022-10-28T03:51:14.140Z,91.56
2022-10-28T03:52:14.009Z,91.77
2022-10-28T03:53:13.806Z,90.75
2022-10-28T03:54:14.004Z,90.45
2022-10-28T03:55:13.811Z,90.66
2022-10-28T03:56:13.859Z,90.55
2022-10-28T03:57:13.835Z,89.94
2022-10-28T03:58:13.801Z,90.66
2022-10-28T03:59:16.334Z,91.47
2022-10-28T04:00:13.891Z,91.56
2022-10-28T04:01:14.983Z,91.77
2022-10-28T04:02:13.941Z,91.67
2022-10-28T04:03:13.835Z,91.77
2022-10-28T04:04:13.968Z,91.67
2022-10-28T04:05:13.837Z,91.36
2022-10-28T04:06:13.981Z,91.56
2022-10-28T04:07:14.346Z,91.47
2022-10-28T04:08:13.755Z,91.47
2022-10-28T04:09:13.971Z,91.36
2022-10-28T04:10:13.906Z,91.36
2022-10-28T04:11:13.921Z,91.56
2022-10-28T04:12:13.913Z,91.56
2022-10-28T04:13:13.968Z,91.47
2022-10-28T04:14:13.838Z,91.67
2022-10-28T04:15:14.058Z,91.56
2022-10-28T04:16:13.713Z,91.47
2022-10-28T04:17:13.836Z,91.26
2022-10-28T04:18:13.845Z,91.16
2022-10-28T04:19:13.608Z,90.66
2022-10-28T04:20:13.586Z,91.16
2022-10-28T04:21:13.587Z,91.77
2022-10-28T04:22:13.832Z,91.82
2022-10-28T04:23:13.753Z,92.22
2022-10-28T04:24:13.895Z,92.42
2022-10-28T04:25:16.683Z,91.91
2022-10-28T04:26:13.688Z,92.16
2022-10-28T04:27:13.641Z,91.91
2022-10-28T04:28:13.769Z,91.86
2022-10-28T04:29:13.550Z,91.45
2022-10-28T04:30:13.567Z,91.71
2022-10-28T04:31:13.507Z,92.42
2022-10-28T04:32:13.560Z,92.93
2022-10-28T04:33:13.524Z,93.90
2022-10-28T04:34:13.503Z,93.80
2022-10-28T04:35:13.485Z,93.90
2022-10-28T04:36:13.454Z,92.48
2022-10-28T04:37:15.906Z,92.79
2022-10-28T04:38:13.436Z,91.87
2022-10-28T04:39:13.420Z,92.38
2022-10-28T04:40:13.516Z,91.36
2022-10-28T04:41:13.618Z,90.45
2022-10-28T04:42:13.742Z,90.45
2022-10-28T04:43:13.410Z,90.41
2022-10-28T04:44:13.518Z,91.32
2022-10-28T04:45:13.455Z,92.03
2022-10-28T04:46:13.549Z,91.63
2022-10-28T04:47:13.462Z,91.32
2022-10-28T04:48:13.472Z,91.73
2022-10-28T04:49:13.424Z,91.73
2022-10-28T04:50:13.371Z,92.13
2022-10-28T04:51:13.384Z,92.03
2022-10-28T04:52:15.698Z,91.83
2022-10-28T04:53:14.467Z,92.13
2022-10-28T04:54:13.329Z,91.87
2022-10-28T04:55:13.262Z,91.93
2022-10-28T04:56:13.507Z,91.42
2022-10-28T04:57:14.098Z,91.52
2022-10-28T04:58:13.515Z,91.12
2022-10-28T04:59:13.443Z,91.63
2022-10-28T05:00:13.195Z,90.71
2022-10-28T05:01:13.398Z,90.81
2022-10-28T05:02:13.912Z,91.42
2022-10-28T05:03:13.397Z,91.52
2022-10-28T05:04:13.219Z,90.81
2022-10-28T05:05:13.193Z,90.61
2022-10-28T05:06:13.314Z,91.63
2022-10-28T05:07:13.392Z,92.03
2022-10-28T05:08:13.104Z,91.97
2022-10-28T05:09:13.780Z,92.68
2022-10-28T05:10:13.436Z,92.99
2022-10-28T05:11:13.122Z,92.89
2022-10-28T05:12:13.061Z,92.28
2022-10-28T05:13:13.060Z,91.97
2022-10-28T05:14:13.036Z,91.97
2022-10-28T05:15:13.094Z,92.18
2022-10-28T05:16:13.027Z,91.97
2022-10-28T05:17:13.048Z,91.36
2022-10-28T05:18:13.057Z,91.36
2022-10-28T05:19:13.023Z,91.47
2022-10-28T05:20:12.958Z,91.36
2022-10-28T05:21:12.889Z,91.56
2022-10-28T05:22:13.017Z,91.56
2022-10-28T05:23:13.042Z,91.26
2022-10-28T05:24:12.855Z,91.06
2022-10-28T05:25:13.059Z,90.66
2022-10-28T05:26:12.910Z,91.77
2022-10-28T05:27:13.051Z,91.51
2022-10-28T05:28:13.060Z,91.47
2022-10-28T05:29:13.531Z,91.26
2022-10-28T05:30:13.135Z,91.67
2022-10-28T05:31:13.114Z,91.26
2022-10-28T05:32:13.728Z,90.59
2022-10-28T05:33:13.147Z,90.80
2022-10-28T05:34:13.711Z,91.20
2022-10-28T05:35:13.105Z,91.41
2022-10-28T05:36:13.074Z,91.41
2022-10-28T05:37:13.553Z,90.74
2022-10-28T05:38:13.114Z,91.41
2022-10-28T05:39:13.342Z,91.20
2022-10-28T05:40:13.175Z,91.51
2022-10-28T05:41:13.324Z,91.25
2022-10-28T05:42:13.206Z,91.96
2022-10-28T05:43:13.237Z,92.21
2022-10-28T05:44:12.898Z,92.61
2022-10-28T05:45:13.465Z,92.21
2022-10-28T05:46:13.950Z,91.94
2022-10-28T05:47:14.518Z,93.16
2022-10-28T05:48:14.658Z,94.38
2022-10-28T05:49:13.259Z,94.18
2022-10-28T05:50:12.934Z,94.18
2022-10-28T05:51:13.921Z,93.83
2022-10-28T05:52:12.805Z,92.49
2022-10-28T05:53:12.777Z,93.21
2022-10-28T05:54:12.842Z,93.16
2022-10-28T05:55:13.682Z,93.06
2022-10-28T05:56:12.765Z,92.96
2022-10-28T05:57:12.746Z,93.26
2022-10-28T05:58:12.919Z,93.06
2022-10-28T05:59:12.774Z,92.96
2022-10-28T06:00:12.743Z,93.02
2022-10-28T06:01:12.831Z,93.98
2022-10-28T06:02:12.805Z,93.98
2022-10-28T06:03:12.669Z,94.08
2022-10-28T06:04:12.578Z,94.18
2022-10-28T06:05:12.509Z,94.18
2022-10-28T06:06:12.553Z,93.83
2022-10-28T06:07:12.806Z,93.93
2022-10-28T06:08:12.580Z,93.12
2022-10-28T06:09:12.558Z,92.82
2022-10-28T06:10:12.498Z,92.51
2022-10-28T06:11:11.183Z,92.00
2022-10-28T06:12:11.056Z,91.60
2022-10-28T06:13:11.252Z,92.21
2022-10-28T06:14:10.934Z,92.41
2022-10-28T06:15:10.948Z,92.30
2022-10-28T06:16:11.009Z,91.96
2022-10-28T06:17:10.993Z,92.30
2022-10-28T06:18:12.487Z,92.06
2022-10-28T06:19:10.832Z,92.26
2022-10-28T06:20:10.946Z,92.36
2022-10-28T06:21:10.859Z,91.86
2022-10-28T06:22:10.935Z,92.06
2022-10-28T06:23:10.858Z,91.75
2022-10-28T06:24:12.094Z,90.74
2022-10-28T06:25:10.766Z,90.64
2022-10-28T06:26:10.741Z,90.37
2022-10-28T06:27:16.261Z,90.27
2022-10-28T06:28:10.715Z,90.88
2022-10-28T06:29:10.769Z,91.49
2022-10-28T06:30:10.685Z,92.96
2022-10-28T06:31:10.735Z,93.93
2022-10-28T06:32:11.111Z,94.13
2022-10-28T06:33:11.680Z,94.13
2022-10-28T06:34:10.726Z,92.67
2022-10-28T06:35:10.646Z,92.06
2022-10-28T06:36:10.710Z,91.61
2022-10-28T06:37:10.598Z,90.75
2022-10-28T06:38:10.627Z,90.25
2022-10-28T06:39:10.797Z,90.00
2022-10-28T06:40:10.625Z,89.29
2022-10-28T06:41:10.836Z,89.19
2022-10-28T06:42:10.607Z,88.68
2022-10-28T06:43:10.680Z,87.87
2022-10-28T06:44:10.629Z,87.97
2022-10-28T06:45:11.567Z,87.93
2022-10-28T06:46:10.611Z,87.83
2022-10-28T06:47:12.113Z,87.67
2022-10-28T06:48:12.077Z,87.63
2022-10-28T06:49:12.154Z,87.63
2022-10-28T06:50:12.131Z,87.26
2022-10-28T06:51:12.182Z,87.97
2022-10-28T06:52:12.152Z,88.38
2022-10-28T06:53:12.120Z,88.18
2022-10-28T06:54:12.186Z,87.77
2022-10-28T06:55:12.097Z,87.57
2022-10-28T06:56:12.600Z,87.57
2022-10-28T06:57:12.020Z,86.55
2022-10-28T06:58:13.651Z,86.15
2022-10-28T06:59:12.002Z,86.05
2022-10-28T07:00:12.946Z,86.29
2022-10-28T07:01:12.019Z,86.59
2022-10-28T07:02:12.136Z,86.80
2022-10-28T07:03:11.934Z,86.69
2022-10-28T07:04:11.912Z,87.24
2022-10-28T07:05:11.902Z,87.55
2022-10-28T07:06:11.925Z,88.81
2022-10-28T07:07:11.969Z,90.13
2022-10-28T07:08:11.907Z,90.44
2022-10-28T07:09:11.918Z,91.05
2022-10-28T07:10:13.474Z,90.23
2022-10-28T07:11:11.871Z,90.03
2022-10-28T07:12:11.892Z,90.44
2022-10-28T07:13:11.808Z,90.33
2022-10-28T07:14:11.807Z,91.45
2022-10-28T07:15:11.816Z,91.96
2022-10-28T07:16:11.803Z,91.86
2022-10-28T07:17:11.869Z,91.30
2022-10-28T07:18:11.802Z,91.61
2022-10-28T07:19:11.790Z,90.80
2022-10-28T07:20:11.747Z,89.98
2022-10-28T07:21:11.817Z,90.05
2022-10-28T07:22:11.782Z,90.14
2022-10-28T07:23:11.790Z,89.84
2022-10-28T07:24:11.723Z,89.13
2022-10-28T07:25:11.760Z,89.64
2022-10-28T07:26:11.801Z,89.94
2022-10-28T07:27:11.750Z,89.29
2022-10-28T07:28:11.742Z,89.39
2022-10-28T07:29:11.730Z,88.68
2022-10-28T07:30:11.686Z,89.09
2022-10-28T07:32:11.742Z,89.90
2022-10-28T07:33:11.647Z,90.11
2022-10-28T07:34:11.675Z,89.90
2022-10-28T07:35:11.686Z,89.65
2022-10-28T07:36:11.663Z,88.84
2022-10-28T07:37:11.637Z,88.64
2022-10-28T07:38:11.609Z,88.23
2022-10-28T07:39:11.714Z,87.93
2022-10-28T07:40:11.586Z,88.40
2022-10-28T07:41:11.546Z,88.60
2022-10-28T07:42:11.608Z,88.20
2022-10-28T07:43:11.544Z,87.99
2022-10-28T07:44:11.593Z,88.60
2022-10-28T07:45:11.601Z,89.21
2022-10-28T07:46:12.143Z,88.86
2022-10-28T07:47:11.555Z,88.56
2022-10-28T07:48:11.656Z,88.56
2022-10-28T07:49:11.470Z,88.35
2022-10-28T07:50:12.596Z,88.51
2022-10-28T07:51:11.465Z,87.40
2022-10-28T07:52:11.450Z,86.59
2022-10-28T07:53:11.456Z,85.07
2022-10-28T07:54:11.436Z,85.33
2022-10-28T07:55:11.442Z,86.15
2022-10-28T07:56:11.431Z,85.84
2022-10-28T07:57:11.381Z,86.25
2022-10-28T07:58:11.452Z,85.24
2022-10-28T07:59:11.392Z,85.33
2022-10-28T08:00:11.347Z,85.19
2022-10-28T08:01:11.495Z,85.64
2022-10-28T08:02:11.494Z,85.60
2022-10-28T08:03:45.198Z,84.55
2022-10-28T08:04:11.647Z,84.85
2022-10-28T08:05:11.542Z,84.85
2022-10-28T08:06:11.269Z,85.56
2022-10-28T08:07:11.298Z,84.85
2022-10-28T08:08:11.285Z,85.36
2022-10-28T08:09:11.339Z,84.65
2022-10-28T08:10:11.267Z,85.05
2022-10-28T08:11:11.294Z,84.71
2022-10-28T08:12:11.214Z,84.61
2022-10-28T08:13:11.289Z,84.31
2022-10-28T08:14:11.206Z,84.00
2022-10-28T08:15:12.190Z,84.17
2022-10-28T08:16:11.348Z,83.66
2022-10-28T08:17:11.338Z,84.27
2022-10-28T08:18:11.231Z,83.46
2022-10-28T08:19:44.728Z,82.45
2022-10-28T08:20:11.517Z,83.15
2022-10-28T08:21:11.432Z,83.15
2022-10-28T08:22:11.326Z,83.42
2022-10-28T08:23:11.160Z,83.32
2022-10-28T08:24:11.138Z,82.91
2022-10-28T08:25:11.133Z,83.01
2022-10-28T08:26:11.060Z,82.31
2022-10-28T08:27:11.140Z,82.41
2022-10-28T08:28:11.308Z,82.61
2022-10-28T08:29:11.094Z,82.01
2022-10-28T08:30:11.062Z,81.80
2022-10-28T08:31:11.072Z,82.61
2022-10-28T08:32:11.003Z,82.10
2022-10-28T08:33:11.041Z,82.21
2022-10-28T08:34:11.063Z,82.41
2022-10-28T08:35:10.995Z,83.07
2022-10-28T08:36:11.256Z,82.67
2022-10-28T08:37:11.043Z,82.27
2022-10-28T08:38:11.028Z,82.27
2022-10-28T08:39:10.982Z,82.37
2022-10-28T08:40:11.100Z,82.37
2022-10-28T08:41:11.104Z,82.13
2022-10-28T08:42:10.957Z,83.28
2022-10-28T08:43:11.049Z,82.53
2022-10-28T08:44:12.009Z,82.53
2022-10-28T08:45:15.356Z,82.33
2022-10-28T08:46:11.871Z,81.82
2022-10-28T08:47:10.942Z,81.93
2022-10-28T08:48:10.892Z,80.92
2022-10-28T08:49:10.926Z,82.03
2022-10-28T08:50:10.852Z,81.82
2022-10-28T08:51:10.836Z,82.33
2022-10-28T08:52:10.815Z,82.13
2022-10-28T08:53:10.867Z,82.23
2022-10-28T08:54:10.856Z,81.73
2022-10-28T08:55:10.814Z,82.03
2022-10-28T08:56:10.813Z,81.52
2022-10-28T08:57:14.523Z,81.68
2022-10-28T08:58:11.792Z,81.18
2022-10-28T08:59:10.750Z,81.08
2022-10-28T09:00:10.806Z,81.18
2022-10-28T09:01:10.840Z,81.18
2022-10-28T09:02:10.742Z,80.44
2022-10-28T09:03:10.790Z,80.44
2022-10-28T09:04:10.790Z,80.60
2022-10-28T09:05:10.700Z,80.70
2022-10-28T09:06:10.707Z,80.00
2022-10-28T09:07:10.679Z,80.10
2022-10-28T09:08:10.686Z,79.29
2022-10-28T09:09:10.656Z,78.89
2022-10-28T09:10:10.681Z,80.10
2022-10-28T09:11:10.631Z,80.06
2022-10-28T09:12:10.639Z,79.36
2022-10-28T09:13:10.640Z,78.55
2022-10-28T09:14:10.606Z,78.75
2022-10-28T09:15:10.595Z,79.46
2022-10-28T09:16:13.633Z,78.85
2022-10-28T09:17:11.650Z,77.55
2022-10-28T09:18:10.669Z,78.25
2022-10-28T09:19:10.629Z,77.44
2022-10-28T09:20:10.539Z,78.11
2022-10-28T09:21:10.527Z,78.15
2022-10-28T09:22:10.580Z,78.15
2022-10-28T09:23:10.629Z,77.61
2022-10-28T09:24:10.581Z,78.41
2022-10-28T09:25:10.463Z,77.81
2022-10-28T09:26:10.590Z,78.41
2022-10-28T09:27:10.498Z,78.21
2022-10-28T09:28:10.593Z,78.27
2022-10-28T09:29:10.500Z,77.27
2022-10-28T09:30:10.735Z,77.57
2022-10-28T09:31:10.424Z,77.07
2022-10-28T09:32:10.447Z,77.47
2022-10-28T09:33:10.492Z,77.17
2022-10-28T09:34:10.840Z,76.73
2022-10-28T09:35:10.632Z,77.03
2022-10-28T09:36:10.508Z,76.83
2022-10-28T09:37:10.398Z,76.93
2022-10-28T09:38:10.453Z,78.10
2022-10-28T09:39:11.025Z,77.20
2022-10-28T09:40:10.409Z,76.49
2022-10-28T09:41:10.590Z,75.99
2022-10-28T09:42:10.345Z,75.99
2022-10-28T09:43:10.363Z,76.35
2022-10-28T09:44:10.368Z,76.35
2022-10-28T10:02:40.858Z,71.53
2022-10-28T10:03:41.990Z,71.33
2022-10-28T10:04:42.052Z,71.63
2022-10-28T10:05:41.940Z,71.63
2022-10-28T10:06:41.985Z,71.03
2022-10-28T10:07:41.914Z,70.03
2022-10-28T10:08:41.976Z,72.24
2022-10-28T10:09:41.888Z,72.56
2022-10-28T10:10:41.902Z,72.56
2022-10-28T10:11:42.588Z,72.56
2022-10-28T10:12:41.918Z,71.66
2022-10-28T10:13:41.837Z,72.37
2022-10-28T10:14:41.899Z,71.56
2022-10-28T10:15:41.892Z,72.17
2022-10-28T10:16:42.075Z,71.47
2022-10-28T10:17:41.995Z,70.86
2022-10-28T10:18:41.873Z,71.47
2022-10-28T10:19:42.008Z,71.86
2022-10-28T10:20:41.862Z,71.86
2022-10-28T10:21:41.814Z,71.97
2022-10-28T10:22:41.829Z,72.37
2022-10-28T10:23:41.849Z,71.36
2022-10-28T10:24:41.821Z,71.23
2022-10-28T10:25:41.749Z,70.96
2022-10-28T10:26:42.020Z,71.53
2022-10-28T10:27:41.854Z,71.63
2022-10-28T10:28:41.689Z,71.83
2022-10-28T10:29:41.736Z,71.23
2022-10-28T10:30:41.716Z,71.83
2022-10-28T10:31:41.813Z,70.12
2022-10-28T10:32:41.706Z,69.89
2022-10-28T10:33:41.865Z,70.19
2022-10-28T10:34:41.662Z,72.00
2022-10-28T10:35:41.667Z,69.86
2022-10-28T10:36:41.692Z,69.26
2022-10-28T10:37:41.701Z,69.46
2022-10-28T10:38:41.672Z,68.46
2022-10-28T10:39:42.198Z,69.02
2022-10-28T10:40:41.590Z,69.62
2022-10-28T10:41:41.626Z,69.53
2022-10-28T10:42:51.678Z,69.16
2022-10-28T10:43:43.573Z,68.42
2022-10-28T10:44:41.530Z,68.62
2022-10-28T10:45:41.697Z,69.35
2022-10-28T10:46:41.524Z,69.06
2022-10-28T10:47:41.729Z,69.26
2022-10-28T10:48:41.624Z,69.16
2022-10-28T10:49:41.571Z,70.19
2022-10-28T10:50:41.477Z,69.96
2022-10-28T10:51:41.453Z,68.89
2022-10-28T10:52:41.737Z,68.96
2022-10-28T10:53:41.472Z,69.16
2022-10-28T10:54:42.469Z,69.26
2022-10-28T10:55:41.437Z,68.85
2022-10-28T10:56:41.499Z,69.26
2022-10-28T10:57:42.059Z,69.56
2022-10-28T10:58:41.489Z,69.16
2022-10-28T10:59:41.415Z,70.03
2022-10-28T11:00:41.458Z,69.16
2022-10-28T11:01:41.554Z,69.66
2022-10-28T11:02:41.518Z,69.16
2022-10-28T11:03:41.431Z,69.56
2022-10-28T11:04:41.474Z,69.73
2022-10-28T11:05:41.357Z,69.23
2022-10-28T11:06:41.371Z,69.32
2022-10-28T11:07:41.425Z,68.92
2022-10-28T11:08:41.468Z,68.82
2022-10-28T11:09:41.377Z,69.12
2022-10-28T11:10:41.317Z,68.12
2022-10-28T11:11:41.335Z,67.79
2022-10-28T11:12:41.284Z,66.86
2022-10-28T11:13:45.086Z,66.13
2022-10-28T11:14:42.250Z,66.19
2022-10-28T11:15:41.300Z,65.66
2022-10-28T11:16:41.235Z,64.97
2022-10-28T11:17:41.403Z,63.11
2022-10-28T11:18:41.470Z,60.56
2022-10-28T11:19:41.331Z,60.66
2022-10-28T11:20:41.199Z,60.79
2022-10-28T11:21:41.226Z,61.65
2022-10-28T11:22:41.618Z,62.37
2022-10-28T11:23:41.198Z,63.23
2022-10-28T11:24:41.220Z,63.36
2022-10-28T11:25:41.192Z,64.46
2022-10-28T11:26:41.174Z,63.43
2022-10-28T11:27:41.306Z,63.46
2022-10-28T11:28:41.171Z,63.36
2022-10-28T11:29:41.184Z,63.36
2022-10-28T11:30:41.384Z,62.30
2022-10-28T11:31:41.485Z,61.22
2022-10-28T11:32:50.130Z,59.27
2022-10-28T11:33:42.145Z,58.91
2022-10-28T11:34:41.062Z,57.02
2022-10-28T11:35:41.047Z,57.71
2022-10-28T11:36:41.024Z,56.30
2022-10-28T11:37:41.078Z,56.27
2022-10-28T11:38:45.553Z,55.65
2022-10-28T11:39:42.114Z,55.90
2022-10-28T11:40:40.997Z,55.73
2022-10-28T11:41:41.360Z,58.17
2022-10-28T11:42:41.185Z,58.20
2022-10-28T11:43:41.105Z,59.35
2022-10-28T11:44:41.240Z,59.22
2022-10-28T11:45:40.950Z,57.70
2022-10-28T11:46:41.363Z,58.20
2022-10-28T11:47:40.931Z,58.76
2022-10-28T11:48:41.029Z,58.17
2022-10-28T11:49:40.938Z,57.28
2022-10-28T11:50:40.982Z,58.14
2022-10-28T11:51:41.054Z,56.89
2022-10-28T11:52:45.114Z,56.70
2022-10-28T11:53:41.879Z,55.77
2022-10-28T11:54:41.262Z,55.55
2022-10-28T11:55:40.900Z,55.20
2022-10-28T11:56:41.753Z,55.85
2022-10-28T11:57:40.946Z,58.07
2022-10-28T11:58:40.986Z,58.97
2022-10-28T11:59:40.881Z,58.37
2022-10-28T12:00:40.806Z,57.05
2022-10-28T12:01:41.151Z,57.35
2022-10-28T12:02:40.856Z,56.55
2022-10-28T12:03:41.348Z,57.75
2022-10-28T12:04:40.899Z,57.24
2022-10-28T12:05:40.876Z,56.65
2022-10-28T12:06:40.813Z,55.95
2022-10-28T12:07:40.849Z,55.35
2022-10-28T12:08:41.050Z,56.65
2022-10-28T12:09:40.816Z,55.85
2022-10-28T12:10:41.009Z,56.65
2022-10-28T12:11:40.911Z,55.76
2022-10-28T12:12:41.475Z,57.67
2022-10-28T12:13:40.767Z,56.21
2022-10-28T12:14:40.938Z,56.73
2022-10-28T12:15:41.645Z,58.03
2022-10-28T12:16:41.147Z,57.82
2022-10-28T12:17:41.233Z,58.06
2022-10-28T12:18:40.661Z,59.38
2022-10-28T12:19:40.759Z,58.36
2022-10-28T12:20:40.775Z,58.20
2022-10-28T12:21:40.700Z,56.70
2022-10-28T12:22:40.638Z,56.55
2022-10-28T12:23:41.005Z,56.23
2022-10-28T12:24:40.623Z,55.20
2022-10-28T12:25:41.978Z,55.18
2022-10-28T12:26:40.707Z,54.97
2022-10-28T12:27:40.769Z,54.97
2022-10-28T12:28:41.484Z,55.30
2022-10-28T12:29:44.140Z,55.23
2022-10-28T12:30:40.937Z,56.00
2022-10-28T12:31:40.628Z,54.90
2022-10-28T12:32:40.662Z,54.43
2022-10-28T12:33:41.173Z,55.73
2022-10-28T12:34:45.529Z,56.35
2022-10-28T12:35:42.347Z,57.67
2022-10-28T12:36:40.594Z,56.70
2022-10-28T12:37:43.382Z,55.98
2022-10-28T12:38:41.666Z,56.27
2022-10-28T12:39:41.039Z,56.87
2022-10-28T12:40:41.119Z,58.25
